This is the latest recevied weather packets stored in our database for station/object E27EKO-13. If no packets are shown the sender has not sent any weather packets the latest 10 day(s).
| Time | Temp. | Humidity | Pressure | Rain* | Wind** | Luminosity | Snow |
|---|---|---|---|---|---|---|---|
| 1787796968 | 36.67° C | 54% | 1008 hPa | - | - | 0 W/m² | - |
| 1787796646 | 38.33° C | 51% | 1008 hPa | - | - | 0 W/m² | - |
| 1787796324 | 37.78° C | 52% | 1008 hPa | - | - | 0 W/m² | - |
| 1787796002 | 37.22° C | 54% | 1008 hPa | - | - | 0 W/m² | - |
| 1787795680 | 36.67° C | 54% | 1008 hPa | - | - | 0 W/m² | - |
| 1787795358 | 37.22° C | 53% | 1008 hPa | - | - | 0 W/m² | - |
| 1787795141 | 37.22° C | 52% | 1008 hPa | - | - | 0 W/m² | - |
| 1787794819 | 37.22° C | 53% | 1008 hPa | - | - | 0 W/m² | - |
| 1787794497 | 37.78° C | 52% | 1008 hPa | - | - | 0 W/m² | - |
| 1787794175 | 37.22° C | 52% | 1008 hPa | - | - | 0 W/m² | - |
| 1787793853 | 37.78° C | 51% | 1008 hPa | - | - | 0 W/m² | - |
| 1787793531 | 38.33° C | 50% | 1008 hPa | - | - | 0 W/m² | - |
| 1787793209 | 40° C | 46% | 1008 hPa | - | - | 0 W/m² | - |
| 1787792887 | 39.44° C | 47% | 1008 hPa | - | - | 0 W/m² | - |
| 1787792565 | 41.11° C | 44% | 1007 hPa | - | - | 0 W/m² | - |
| 1787792243 | 39.44° C | 47% | 1007 hPa | - | - | 0 W/m² | - |
| 1787791921 | 35° C | 57% | 1007 hPa | - | - | 0 W/m² | - |
| 1787791599 | 35° C | 57% | 1007 hPa | - | - | 0 W/m² | - |
| 1787791276 | 36.67° C | 53% | 1007 hPa | - | - | 0 W/m² | - |
| 1787790954 | 39.44° C | 47% | 1007 hPa | - | - | 0 W/m² | - |
| 1787790632 | 42.22° C | 42% | 1007 hPa | - | - | 0 W/m² | - |
| 1787790310 | 42.78° C | 42% | 1007 hPa | - | - | 0 W/m² | - |
| 1787789988 | 40.56° C | 47% | 1007 hPa | - | - | 0 W/m² | - |
| 1787789885 | 39.44° C | 50% | 1007 hPa | - | - | 0 W/m² | - |
| 1787789497 | 34.44° C | 61% | 1007 hPa | - | - | 0 W/m² | - |
* Rain since midnight (hover to see other rain measurements)
** Current wind speed in m/s (hover to see current wind gust speed)